Terminal Aerodrome Forecast
Issued by NWS

Home | Current Version | Previous Version | Text Only | Print | Product List | Glossary On
Versions: 1 2 3 4 5 6 7 8 9 10 11 12 13 14 15 16 17
510
FTUS41 KPBZ 230251 AAA
TAFZZV
TAF AMD
KZZV 230251Z 2303/2324 17011KT P6SM OVC045 WS020/20040KT
     FM230600 18010G19KT 5SM -SHRA OVC030 WS020/20045KT
      TEMPO 2307/2309 3SM TSRA OVC025CB
     FM230900 21008G18KT P6SM VCSH OVC040 WS020/21040KT
     FM231200 22012G22KT P6SM VCSH OVC035
     FM231500 22013G25KT P6SM VCSH OVC030=

USA.gov is the U.S. government's official web portal to all federal, state and local government web resources and services.